Time;durP1;ratioP1;P1;durP2;ratioP2;P2;SDS_P1;SDS_P2;PMS_P1;PMS_P2;Temp;Humidity;BMP_temperature;BMP_pressure;BME280_temperature;BME280_humidity;BME280_pressure;Samples;Min_cycle;Max_cycle;Signal;HPM_P1;HPM_P2
2022/06/12 00:00:11;;;;;;;2.78;0.60;;;15.60;76.20;;;;;;2095736;28;20056;-93
2022/06/12 00:01:31;;;;;;;2.92;0.40;;;15.50;76.30;;;;;;2098323;28;20052;-93
2022/06/12 00:02:51;;;;;;;1.08;0.35;;;15.50;76.40;;;;;;2087542;28;20041;-93
2022/06/12 00:04:11;;;;;;;2.37;0.70;;;15.50;76.40;;;;;;2093385;28;20116;-93
2022/06/12 00:05:34;;;;;;;1.25;0.32;;;15.50;76.50;;;;;;2079090;28;20280;-92
2022/06/12 00:06:54;;;;;;;1.67;0.50;;;15.50;76.60;;;;;;2087660;28;20033;-93
2022/06/12 00:08:14;;;;;;;1.50;0.38;;;15.50;76.60;;;;;;2075010;28;20550;-92
2022/06/12 00:09:33;;;;;;;2.58;0.45;;;15.50;76.70;;;;;;2084362;28;20041;-92
2022/06/12 00:10:55;;;;;;;1.00;0.32;;;15.40;76.80;;;;;;2085153;28;20442;-93
2022/06/12 00:12:15;;;;;;;1.42;0.50;;;15.40;76.80;;;;;;2092480;28;20028;-92
2022/06/12 00:13:50;;;;;;;1.10;0.40;;;15.40;76.90;;;;;;2088057;28;20037;-92
2022/06/12 00:15:21;;;;;;;2.08;0.47;;;15.30;77.00;;;;;;2097205;28;20037;-92
2022/06/12 00:16:42;;;;;;;1.67;0.40;;;15.30;77.10;;;;;;2108772;28;20040;-93
2022/06/12 00:18:02;;;;;;;1.60;0.40;;;15.30;77.10;;;;;;2094400;28;20029;-93
2022/06/12 00:19:22;;;;;;;1.55;0.40;;;15.30;77.20;;;;;;2097607;28;20465;-92
2022/06/12 00:20:41;;;;;;;3.17;0.65;;;15.20;77.20;;;;;;2085053;28;20536;-91
2022/06/12 00:22:01;;;;;;;2.67;0.60;;;15.20;77.30;;;;;;2085877;28;20045;-92
2022/06/12 00:23:20;;;;;;;1.27;0.50;;;15.20;77.40;;;;;;2079722;28;20447;-92
2022/06/12 00:24:39;;;;;;;1.27;0.38;;;15.20;77.50;;;;;;2074338;28;20079;-92
2022/06/12 00:25:58;;;;;;;1.65;0.50;;;15.10;77.40;;;;;;2085310;28;20431;-93
2022/06/12 00:27:18;;;;;;;0.65;0.35;;;15.10;77.50;;;;;;2092502;28;20111;-93
2022/06/12 00:28:37;;;;;;;1.88;0.50;;;15.20;77.60;;;;;;2079231;28;20046;-92
2022/06/12 00:29:57;;;;;;;1.20;0.50;;;15.10;77.60;;;;;;2086722;28;20064;-93
2022/06/12 00:31:16;;;;;;;1.67;0.40;;;15.10;77.60;;;;;;2090207;28;20029;-93
2022/06/12 00:32:36;;;;;;;2.33;0.50;;;15.10;77.60;;;;;;2079525;28;20069;-93
2022/06/12 00:33:56;;;;;;;3.33;0.50;;;15.10;77.70;;;;;;2076136;28;20072;-93
2022/06/12 00:35:17;;;;;;;2.42;0.50;;;15.10;77.80;;;;;;2076426;28;20473;-94
2022/06/12 00:36:36;;;;;;;0.80;0.40;;;15.10;77.90;;;;;;2085815;28;20037;-93
2022/06/12 00:37:56;;;;;;;1.65;0.30;;;15.00;78.00;;;;;;2096174;28;20064;-93
2022/06/12 00:39:16;;;;;;;1.63;0.50;;;15.00;78.10;;;;;;2087010;28;20025;-92
2022/06/12 00:40:36;;;;;;;1.35;0.45;;;15.00;78.10;;;;;;2085001;28;20042;-93
2022/06/12 00:41:57;;;;;;;0.80;0.30;;;15.00;78.20;;;;;;2089812;28;20040;-92
2022/06/12 00:43:16;;;;;;;;;;;14.90;78.10;;;;;;2088078;28;20116;-92
2022/06/12 00:44:42;;;;;;;1.67;0.40;;;14.90;78.10;;;;;;2072306;28;19909;-93
2022/06/12 00:46:03;;;;;;;1.25;0.50;;;14.90;78.10;;;;;;2094514;28;20033;-93
2022/06/12 00:47:23;;;;;;;0.93;0.45;;;14.90;78.20;;;;;;2084706;28;20030;-92
2022/06/12 00:48:42;;;;;;;1.95;0.45;;;14.90;78.20;;;;;;2084690;28;20462;-93
2022/06/12 00:50:05;;;;;;;0.57;0.30;;;14.90;78.30;;;;;;2081717;28;20645;-93
2022/06/12 00:51:25;;;;;;;1.88;0.47;;;14.90;78.40;;;;;;2101200;28;20028;-92
2022/06/12 00:52:47;;;;;;;2.15;0.45;;;14.90;78.40;;;;;;2084546;28;20077;-94
2022/06/12 00:54:09;;;;;;;1.38;0.43;;;14.80;78.40;;;;;;2093189;28;20090;-93
2022/06/12 00:55:56;;;;;;;1.05;0.43;;;14.80;78.40;;;;;;2104333;28;20489;-93
2022/06/12 00:57:18;;;;;;;2.80;0.40;;;14.90;78.40;;;;;;2099220;28;20036;-92
2022/06/12 00:58:44;;;;;;;1.83;0.30;;;14.80;78.30;;;;;;2090268;28;20029;-93
2022/06/12 01:00:14;;;;;;;2.05;0.47;;;14.90;78.40;;;;;;2090051;28;20049;-93
2022/06/12 01:01:38;;;;;;;1.05;0.20;;;14.90;78.30;;;;;;2095387;28;20048;-93
2022/06/12 01:02:59;;;;;;;1.55;0.40;;;14.90;78.30;;;;;;2095597;28;20506;-93
2022/06/12 01:07:47;;;;;;;1.45;0.32;;;14.80;78.50;;;;;;2106463;28;20119;-93
2022/06/12 01:09:15;;;;;;;;;;;14.80;78.60;;;;;;2095297;28;20112;-93
2022/06/12 01:10:41;;;;;;;1.65;0.40;;;14.70;78.60;;;;;;2102226;28;19912;-93
2022/06/12 01:12:10;;;;;;;1.23;0.35;;;14.80;78.70;;;;;;2097790;28;20044;-93
2022/06/12 01:13:41;;;;;;;2.08;0.40;;;14.70;78.70;;;;;;2088477;28;20037;-93
2022/06/12 01:15:14;;;;;;;1.05;0.50;;;14.70;78.80;;;;;;2091045;28;20037;-93
2022/06/12 01:16:45;;;;;;;1.08;0.47;;;14.70;78.80;;;;;;2083078;28;20117;-93
2022/06/12 01:18:09;;;;;;;0.73;0.40;;;14.70;78.90;;;;;;2082135;28;20045;-93
2022/06/12 01:19:53;;;;;;;1.13;0.40;;;14.70;78.90;;;;;;2086516;28;20033;-93
2022/06/12 01:21:47;;;;;;;1.35;0.50;;;14.70;79.00;;;;;;2096607;28;20040;-93
2022/06/12 01:23:42;;;;;;;2.88;0.50;;;14.70;79.00;;;;;;2097047;28;20076;-93
2022/06/12 01:26:16;;;;;;;1.38;0.50;;;14.70;79.00;;;;;;2099189;28;20450;-93
2022/06/12 01:28:14;;;;;;;2.38;0.40;;;14.60;79.00;;;;;;2099324;28;20123;-93
2022/06/12 01:30:11;;;;;;;0.68;0.32;;;14.60;79.20;;;;;;2099677;28;20036;-92
2022/06/12 01:31:46;;;;;;;1.17;0.43;;;14.50;79.20;;;;;;2107359;28;20051;-93
2022/06/12 01:34:03;;;;;;;2.53;0.60;;;14.50;79.40;;;;;;2109919;28;20036;-92
2022/06/12 01:35:42;;;;;;;1.95;0.40;;;14.50;79.50;;;;;;2099768;28;20131;-92
2022/06/12 01:38:01;;;;;;;1.83;0.50;;;14.50;79.60;;;;;;2101430;28;20029;-91
2022/06/12 01:39:49;;;;;;;0.98;0.32;;;14.40;79.70;;;;;;2091254;28;20121;-92
2022/06/12 01:41:47;;;;;;;3.58;0.60;;;14.40;79.80;;;;;;2107140;28;20119;-92
2022/06/12 01:43:27;;;;;;;2.08;0.40;;;14.40;79.80;;;;;;2099166;28;20508;-93
2022/06/12 01:45:26;;;;;;;1.63;0.55;;;14.40;79.90;;;;;;2099370;28;20032;-93
2022/06/12 01:47:03;;;;;;;2.25;0.50;;;14.40;79.90;;;;;;2090473;28;20048;-93
2022/06/12 01:48:50;;;;;;;2.63;0.70;;;14.40;80.00;;;;;;2098004;28;20573;-93
2022/06/12 01:50:29;;;;;;;1.42;0.40;;;14.30;80.10;;;;;;2102550;28;20036;-93
2022/06/12 01:52:28;;;;;;;1.33;0.60;;;14.30;80.10;;;;;;2098643;28;20028;-94
2022/06/12 01:55:00;;;;;;;1.42;0.50;;;14.30;80.20;;;;;;2100624;28;20028;-94
2022/06/12 01:56:37;;;;;;;2.25;0.60;;;14.20;80.30;;;;;;2091945;28;20033;-94
2022/06/12 01:58:44;;;;;;;1.23;0.50;;;14.20;80.40;;;;;;2102932;28;20036;-94
2022/06/12 02:00:27;;;;;;;2.40;0.50;;;14.20;80.60;;;;;;2109801;28;20052;-94
2022/06/12 02:02:36;;;;;;;3.08;0.60;;;14.20;80.70;;;;;;2116856;28;20032;-94
2022/06/12 02:04:39;;;;;;;2.67;0.60;;;14.20;80.80;;;;;;2107021;28;20497;-94
2022/06/12 02:06:11;;;;;;;1.60;0.60;;;14.10;80.90;;;;;;2085024;28;20483;-93
2022/06/12 02:07:34;;;;;;;;;;;14.10;80.90;;;;;;2092365;28;20041;-94
2022/06/12 02:09:00;;;;;;;1.45;0.60;;;14.10;80.90;;;;;;2083772;28;20306;-93
2022/06/12 02:10:29;;;;;;;2.50;0.73;;;14.10;81.00;;;;;;2107834;28;20452;-93
2022/06/12 02:13:45;;;;;;;2.00;0.55;;;14.10;81.30;;;;;;2104466;28;20032;-94
2022/06/12 02:15:25;;;;;;;2.95;0.70;;;14.10;81.40;;;;;;2099479;28;20048;-95
2022/06/12 02:16:53;;;;;;;3.05;0.80;;;14.10;81.50;;;;;;2117503;28;20048;-94
2022/06/12 02:18:22;;;;;;;3.13;1.00;;;14.00;81.40;;;;;;2117601;28;20035;-94
2022/06/12 02:19:44;;;;;;;3.05;0.90;;;14.00;81.60;;;;;;2116606;28;20036;-94
2022/06/12 02:21:24;;;;;;;2.00;0.60;;;14.00;81.70;;;;;;2117296;28;20048;-94
2022/06/12 02:22:49;;;;;;;2.60;0.60;;;14.00;82.00;;;;;;2099563;28;20044;-94
2022/06/12 02:24:16;;;;;;;3.40;0.70;;;14.00;82.20;;;;;;2112332;28;20497;-94
2022/06/12 02:25:41;;;;;;;2.42;0.80;;;13.90;82.30;;;;;;2091877;28;20033;-94
2022/06/12 02:27:12;;;;;;;2.80;0.90;;;13.90;82.50;;;;;;2110376;28;20036;-94
2022/06/12 02:28:54;;;;;;;2.78;0.88;;;13.90;82.60;;;;;;2108157;28;20494;-93
2022/06/12 02:30:25;;;;;;;2.42;0.73;;;13.90;82.70;;;;;;2108047;28;20127;-94
2022/06/12 02:31:52;;;;;;;2.70;0.80;;;13.90;82.80;;;;;;2090067;28;20045;-94
2022/06/12 02:33:37;;;;;;;2.72;0.75;;;13.80;82.90;;;;;;2103663;28;20033;-93
2022/06/12 02:35:20;;;;;;;2.30;0.70;;;13.90;82.90;;;;;;2092177;28;20072;-94
2022/06/12 02:36:53;;;;;;;3.47;0.82;;;13.90;83.00;;;;;;2099761;28;20044;-94
2022/06/12 02:38:18;;;;;;;2.58;0.80;;;13.90;83.10;;;;;;2091646;28;20045;-94
2022/06/12 02:39:47;;;;;;;3.10;0.82;;;13.80;83.00;;;;;;2101644;28;20119;-94
2022/06/12 02:41:35;;;;;;;2.75;0.85;;;13.80;83.80;;;;;;2097860;28;20045;-93
2022/06/12 02:42:57;;;;;;;3.28;0.70;;;13.80;83.30;;;;;;2107807;28;20036;-94
2022/06/12 02:44:36;;;;;;;2.88;0.80;;;13.80;83.40;;;;;;2096168;28;20041;-94
2022/06/12 02:46:21;;;;;;;;;;;13.80;83.60;;;;;;2116914;28;20035;-94
2022/06/12 02:47:42;;;;;;;2.63;0.70;;;13.80;83.40;;;;;;2107959;28;19912;-94
2022/06/12 02:49:06;;;;;;;2.20;0.90;;;13.80;83.30;;;;;;2114215;28;20138;-94
2022/06/12 02:50:41;;;;;;;3.25;0.70;;;13.80;83.40;;;;;;2099004;28;20068;-93
2022/06/12 02:52:28;;;;;;;2.22;0.77;;;13.80;83.50;;;;;;2115460;28;20039;-93
2022/06/12 02:54:24;;;;;;;2.65;0.77;;;13.80;83.60;;;;;;2106628;28;20128;-94
2022/06/12 02:55:50;;;;;;;2.10;0.70;;;13.80;83.70;;;;;;2110847;28;20035;-94
2022/06/12 02:57:44;;;;;;;1.55;0.50;;;13.80;83.70;;;;;;2102499;28;20035;-93
2022/06/12 02:59:34;;;;;;;2.42;0.60;;;13.80;83.70;;;;;;2087377;28;20044;-93
2022/06/12 03:01:01;;;;;;;4.13;0.90;;;13.80;83.70;;;;;;2107409;28;20040;-93
2022/06/12 03:02:53;;;;;;;2.72;0.80;;;13.70;83.70;;;;;;2110976;28;20031;-93
2022/06/12 03:04:21;;;;;;;;;;;13.70;83.80;;;;;;2103520;28;20067;-94
2022/06/12 03:05:45;;;;;;;3.40;0.82;;;13.70;83.70;;;;;;2105473;28;20355;-93
2022/06/12 03:07:08;;;;;;;3.97;0.95;;;13.70;83.70;;;;;;2096721;28;20041;-93
2022/06/12 03:08:33;;;;;;;3.50;0.75;;;13.70;83.90;;;;;;2102414;28;20119;-94
2022/06/12 03:10:23;;;;;;;2.80;0.80;;;13.70;84.10;;;;;;2104688;28;20450;-94
2022/06/12 03:11:57;;;;;;;3.65;0.90;;;13.70;84.10;;;;;;2108454;28;20119;-93
2022/06/12 03:13:57;;;;;;;;;;;13.70;84.20;;;;;;2091008;28;20044;-93
2022/06/12 03:15:49;;;;;;;3.35;0.80;;;13.70;84.10;;;;;;2104171;28;19998;-93
2022/06/12 03:17:15;;;;;;;2.40;0.80;;;13.70;84.10;;;;;;2100300;28;20032;-94
2022/06/12 03:18:39;;;;;;;2.45;0.70;;;13.70;84.10;;;;;;2083104;28;20037;-94
2022/06/12 03:20:00;;;;;;;2.92;0.80;;;13.70;84.20;;;;;;2086489;28;20049;-93
2022/06/12 03:21:29;;;;;;;3.20;0.70;;;13.70;84.40;;;;;;2086847;28;20100;-94
2022/06/12 03:23:05;;;;;;;2.92;0.68;;;13.60;84.50;;;;;;2102896;28;20044;-93
2022/06/12 03:25:15;;;;;;;3.58;0.90;;;13.70;84.60;;;;;;2109529;28;20107;-93
2022/06/12 03:27:10;;;;;;;3.05;0.80;;;13.70;84.50;;;;;;2104825;28;20052;-93
2022/06/12 03:29:13;;;;;;;2.00;0.70;;;13.70;84.60;;;;;;2101922;28;20048;-93
2022/06/12 03:31:17;;;;;;;3.78;0.80;;;13.60;84.50;;;;;;2092919;28;20025;-92
2022/06/12 03:33:07;;;;;;;2.85;0.70;;;13.70;84.60;;;;;;2091214;28;20033;-94
2022/06/12 03:34:55;;;;;;;2.55;0.80;;;13.70;84.60;;;;;;2091261;28;20112;-93
2022/06/12 03:36:29;;;;;;;2.10;0.68;;;13.70;84.60;;;;;;2091344;28;20041;-93
2022/06/12 03:38:20;;;;;;;2.50;0.93;;;13.70;84.60;;;;;;2080501;28;20072;-94
2022/06/12 03:40:09;;;;;;;2.97;0.73;;;13.70;84.70;;;;;;2107646;28;20032;-93
2022/06/12 03:42:04;;;;;;;1.60;0.60;;;13.70;84.70;;;;;;2097270;28;20048;-94
2022/06/12 03:44:03;;;;;;;3.08;0.82;;;13.70;84.90;;;;;;2091085;28;20029;-94
2022/06/12 03:45:28;;;;;;;2.13;0.70;;;13.70;84.90;;;;;;2080255;28;20032;-93
2022/06/12 03:47:09;;;;;;;1.55;0.60;;;13.70;85.00;;;;;;2099853;28;20040;-94
2022/06/12 03:48:52;;;;;;;2.33;0.80;;;13.70;85.10;;;;;;2105576;28;20032;-94
2022/06/12 03:50:15;;;;;;;4.10;1.00;;;13.60;85.20;;;;;;2108055;28;20036;-93
2022/06/12 03:52:15;;;;;;;2.60;0.75;;;13.60;85.30;;;;;;2099277;28;20085;-94
2022/06/12 03:54:07;;;;;;;3.40;0.75;;;13.60;85.40;;;;;;2093498;28;20044;-94
2022/06/12 03:57:51;;;;;;;1.08;0.50;;;13.70;85.40;;;;;;2093958;28;20045;-92
2022/06/12 03:59:40;;;;;;;3.63;1.02;;;13.70;85.50;;;;;;2099747;28;20040;-92
2022/06/12 04:01:01;;;;;;;3.28;0.68;;;13.70;85.40;;;;;;2105852;28;20602;-93
2022/06/12 04:02:23;;;;;;;3.58;0.90;;;13.70;85.40;;;;;;2100321;28;20426;-92
2022/06/12 04:03:48;;;;;;;2.80;0.75;;;13.70;85.50;;;;;;2093786;28;20123;-94
2022/06/12 04:05:25;;;;;;;3.65;1.00;;;13.80;85.60;;;;;;2097201;28;20526;-94
2022/06/12 04:07:03;;;;;;;1.58;0.60;;;13.80;85.70;;;;;;2086338;28;20033;-93
2022/06/12 04:08:53;;;;;;;2.03;0.88;;;13.80;85.70;;;;;;2090745;28;20507;-95
2022/06/12 04:10:26;;;;;;;4.20;1.10;;;13.80;85.70;;;;;;2095416;28;20037;-95
2022/06/12 04:11:58;;;;;;;3.65;0.93;;;13.90;85.80;;;;;;2082550;28;20049;-94
2022/06/12 04:13:21;;;;;;;4.00;1.02;;;13.90;85.70;;;;;;2094113;28;20119;-95
2022/06/12 04:14:45;;;;;;;3.28;1.10;;;13.90;85.70;;;;;;2103965;28;20505;-93
2022/06/12 04:16:31;;;;;;;3.50;1.05;;;14.00;85.70;;;;;;2090891;28;20040;-94
2022/06/12 04:17:51;;;;;;;1.70;0.80;;;14.00;85.60;;;;;;2099133;28;20482;-94
2022/06/12 04:19:16;;;;;;;5.57;0.82;;;14.10;85.50;;;;;;2108516;28;20032;-94
2022/06/12 04:20:57;;;;;;;2.58;0.95;;;14.20;85.60;;;;;;2096517;28;20032;-94
2022/06/12 04:22:16;;;;;;;1.98;0.90;;;14.20;85.50;;;;;;2098752;28;20040;-94
2022/06/12 04:24:01;;;;;;;2.63;0.90;;;14.20;85.40;;;;;;2086478;28;20491;-94
2022/06/12 04:25:33;;;;;;;3.63;1.02;;;14.30;85.40;;;;;;2099656;28;20017;-94
2022/06/12 04:27:16;;;;;;;2.72;1.00;;;14.30;85.30;;;;;;2105473;28;20039;-94
2022/06/12 04:28:42;;;;;;;3.15;0.90;;;14.40;85.30;;;;;;2113958;28;20035;-94
2022/06/12 04:30:20;;;;;;;4.30;1.10;;;14.40;85.30;;;;;;2099981;28;20119;-94
2022/06/12 04:31:45;;;;;;;3.47;0.93;;;14.40;85.30;;;;;;2100070;28;20037;-95
2022/06/12 04:33:29;;;;;;;3.00;0.90;;;14.50;85.30;;;;;;2102304;28;20044;-95
2022/06/12 04:34:49;;;;;;;3.72;0.80;;;14.50;85.30;;;;;;2100191;28;20044;-94
2022/06/12 04:36:11;;;;;;;2.17;0.70;;;14.50;85.20;;;;;;2107219;28;20039;-95
2022/06/12 04:37:32;;;;;;;5.15;1.10;;;14.50;85.20;;;;;;2104439;28;20063;-95
2022/06/12 04:38:53;;;;;;;4.13;1.10;;;14.60;85.30;;;;;;2090879;28;20049;-94
2022/06/12 04:40:26;;;;;;;3.20;1.10;;;14.60;85.30;;;;;;2091850;28;20546;-95
2022/06/12 04:41:46;;;;;;;3.47;1.10;;;14.60;85.30;;;;;;2105278;28;20417;-95
2022/06/12 04:43:06;;;;;;;4.10;1.07;;;14.60;85.30;;;;;;2079268;28;20042;-94
2022/06/12 04:44:27;;;;;;;2.63;1.10;;;14.70;85.30;;;;;;2091486;28;20255;-95
2022/06/12 04:45:48;;;;;;;4.10;1.02;;;14.70;85.30;;;;;;2102785;28;20486;-94
2022/06/12 04:47:10;;;;;;;;;;;14.70;85.30;;;;;;2083243;28;20041;-94
2022/06/12 04:48:37;;;;;;;3.65;0.88;;;14.70;85.10;;;;;;2093103;28;20353;-95
2022/06/12 04:49:57;;;;;;;3.92;1.08;;;14.70;85.10;;;;;;2100971;28;20028;-96
2022/06/12 04:51:17;;;;;;;4.55;1.30;;;14.80;85.20;;;;;;2105984;28;20067;-94
2022/06/12 04:52:37;;;;;;;3.67;0.85;;;14.80;85.20;;;;;;2103994;28;20040;-95
2022/06/12 04:53:57;;;;;;;5.50;1.17;;;14.80;85.30;;;;;;2098812;28;20075;-94
2022/06/12 04:55:16;;;;;;;3.47;1.02;;;14.90;85.30;;;;;;2095900;28;20041;-95
2022/06/12 04:56:36;;;;;;;3.63;1.17;;;14.90;85.20;;;;;;2087237;28;20045;-94
2022/06/12 04:57:55;;;;;;;3.13;1.10;;;15.00;85.20;;;;;;2083744;28;20045;-94
2022/06/12 04:59:17;;;;;;;4.07;1.40;;;15.10;85.10;;;;;;2089194;28;20118;-94
2022/06/12 05:00:37;;;;;;;3.00;1.08;;;15.10;85.00;;;;;;2096404;28;20036;-95
2022/06/12 05:01:56;;;;;;;3.63;1.00;;;15.20;85.00;;;;;;2103447;28;20060;-95
2022/06/12 05:03:15;;;;;;;5.07;1.10;;;15.20;84.90;;;;;;2095781;28;20502;-95
2022/06/12 05:04:35;;;;;;;3.13;1.00;;;15.30;84.90;;;;;;2089508;28;20037;-95
2022/06/12 05:05:55;;;;;;;3.72;1.05;;;15.40;84.80;;;;;;2095203;28;20036;-95
2022/06/12 05:07:15;;;;;;;3.30;1.17;;;15.50;84.70;;;;;;2095059;28;20048;-94
2022/06/12 05:08:34;;;;;;;4.38;1.10;;;15.60;84.60;;;;;;2095573;28;20112;-95
2022/06/12 05:09:53;;;;;;;4.03;1.13;;;15.70;84.50;;;;;;2100461;28;20039;-95
2022/06/12 05:11:14;;;;;;;3.95;1.15;;;15.70;84.30;;;;;;2102835;28;20048;-95
2022/06/12 05:12:33;;;;;;;2.92;1.10;;;15.80;84.20;;;;;;2093778;28;20519;-95
2022/06/12 05:13:53;;;;;;;5.03;1.38;;;15.90;84.00;;;;;;2099262;28;20044;-94
2022/06/12 05:15:13;;;;;;;4.57;0.85;;;16.00;83.90;;;;;;2092464;28;20072;-94
2022/06/12 05:16:39;;;;;;;3.63;1.20;;;16.00;83.80;;;;;;2095286;28;20033;-96
2022/06/12 05:17:58;;;;;;;3.60;1.13;;;16.10;83.70;;;;;;2105720;28;20040;-95
2022/06/12 05:19:22;;;;;;;2.67;1.00;;;16.20;83.60;;;;;;2087088;28;20033;-94
2022/06/12 05:20:42;;;;;;;3.90;1.00;;;16.20;83.50;;;;;;2092795;28;20350;-94
2022/06/12 05:22:02;;;;;;;3.45;1.10;;;16.30;83.50;;;;;;2101619;28;20409;-94
2022/06/12 05:23:22;;;;;;;2.55;0.80;;;16.30;83.40;;;;;;2096272;28;20037;-94
2022/06/12 05:24:44;;;;;;;3.22;0.90;;;16.40;83.30;;;;;;2101724;28;20024;-94
2022/06/12 05:26:06;;;;;;;3.88;1.20;;;16.50;83.20;;;;;;2103290;28;20028;-95
2022/06/12 05:27:25;;;;;;;;;;;16.60;83.00;;;;;;2096258;28;20028;-95
2022/06/12 05:28:44;;;;;;;3.67;1.15;;;16.60;82.90;;;;;;2095455;28;20525;-95
2022/06/12 05:30:06;;;;;;;3.45;0.90;;;16.70;82.80;;;;;;2102589;28;20028;-94
2022/06/12 05:31:26;;;;;;;4.18;1.05;;;16.70;82.80;;;;;;2098732;28;20080;-95
2022/06/12 05:32:47;;;;;;;4.20;1.13;;;16.70;82.60;;;;;;2096089;28;20044;-95
2022/06/12 05:34:07;;;;;;;4.57;0.93;;;16.80;82.60;;;;;;2100381;28;20033;-95
2022/06/12 05:35:28;;;;;;;4.97;1.25;;;16.80;82.50;;;;;;2107287;28;20028;-94
2022/06/12 05:36:48;;;;;;;3.67;1.20;;;16.90;82.50;;;;;;2102134;28;20517;-94
2022/06/12 05:38:09;;;;;;;5.85;1.52;;;16.90;82.40;;;;;;2096143;28;20068;-94
2022/06/12 05:39:28;;;;;;;4.15;1.27;;;17.00;82.50;;;;;;2093723;28;20044;-95
2022/06/12 05:40:47;;;;;;;4.80;1.30;;;17.00;82.40;;;;;;2086254;28;20057;-93
2022/06/12 05:42:07;;;;;;;5.15;1.17;;;17.10;82.40;;;;;;2095928;28;20036;-95
2022/06/12 05:43:27;;;;;;;3.90;1.05;;;17.10;82.30;;;;;;2105248;28;20040;-94
2022/06/12 05:44:46;;;;;;;3.95;1.23;;;17.20;82.20;;;;;;2090896;28;20535;-95
2022/06/12 05:46:05;;;;;;;3.20;1.13;;;17.30;82.20;;;;;;2092680;28;20579;-94
2022/06/12 05:47:24;;;;;;;3.15;0.90;;;17.30;82.10;;;;;;2087504;28;20036;-95
2022/06/12 05:48:44;;;;;;;3.38;1.00;;;17.30;82.10;;;;;;2087270;28;20036;-95
2022/06/12 05:50:04;;;;;;;7.80;1.40;;;17.50;82.10;;;;;;2095598;28;20056;-95
2022/06/12 05:51:24;;;;;;;5.75;1.65;;;17.50;82.00;;;;;;2089416;28;20036;-95
2022/06/12 05:52:44;;;;;;;5.65;1.13;;;17.50;81.90;;;;;;2096861;28;20048;-93
2022/06/12 05:54:04;;;;;;;5.82;1.33;;;17.60;81.90;;;;;;2100798;28;20036;-95
2022/06/12 05:55:23;;;;;;;5.05;1.23;;;17.60;81.70;;;;;;2103553;28;20475;-95
2022/06/12 05:56:42;;;;;;;4.65;1.20;;;17.70;81.60;;;;;;2087784;28;20041;-94
2022/06/12 05:58:02;;;;;;;7.07;1.40;;;17.70;81.60;;;;;;2083739;28;20470;-94
2022/06/12 05:59:22;;;;;;;4.45;1.13;;;17.70;81.60;;;;;;2092265;28;20070;-95
2022/06/12 06:00:41;;;;;;;3.38;1.30;;;17.80;81.60;;;;;;2091905;28;20480;-94
2022/06/12 06:02:01;;;;;;;4.93;1.23;;;17.80;81.60;;;;;;2094292;28;20037;-95
2022/06/12 06:03:20;;;;;;;6.10;1.40;;;17.90;81.70;;;;;;2081432;28;20046;-94
2022/06/12 06:04:40;;;;;;;3.87;1.10;;;17.90;81.60;;;;;;2101231;28;20036;-94
2022/06/12 06:06:00;;;;;;;4.82;1.50;;;17.90;81.50;;;;;;2098017;28;20263;-95
2022/06/12 06:07:19;;;;;;;3.80;1.45;;;17.90;81.50;;;;;;2083464;28;20041;-94
2022/06/12 06:08:38;;;;;;;5.88;1.17;;;17.90;81.50;;;;;;2079890;28;20037;-94
2022/06/12 06:09:58;;;;;;;5.15;1.40;;;18.00;81.40;;;;;;2083818;28;20044;-94
2022/06/12 06:11:17;;;;;;;5.78;1.58;;;18.00;81.50;;;;;;2089822;28;20084;-94
2022/06/12 06:12:36;;;;;;;5.93;1.50;;;18.00;81.50;;;;;;2072571;28;20054;-95
2022/06/12 06:13:56;;;;;;;6.03;1.55;;;18.10;81.50;;;;;;2072905;28;20503;-94
2022/06/12 06:15:16;;;;;;;7.22;1.63;;;18.10;81.40;;;;;;2080369;28;20060;-94
2022/06/12 06:16:36;;;;;;;7.30;1.88;;;18.10;81.40;;;;;;2092146;28;20063;-94
2022/06/12 06:17:56;;;;;;;;;;;18.10;81.30;;;;;;2096258;28;20507;-94
2022/06/12 06:19:15;;;;;;;5.88;1.45;;;18.20;81.30;;;;;;2098282;28;19943;-93
2022/06/12 06:20:37;;;;;;;5.55;1.63;;;18.20;81.20;;;;;;2081536;28;20034;-94
2022/06/12 06:21:56;;;;;;;7.03;1.80;;;18.20;81.10;;;;;;2084636;28;20542;-95
2022/06/12 06:23:16;;;;;;;5.70;1.70;;;18.30;81.10;;;;;;2091599;28;20053;-94
2022/06/12 06:24:35;;;;;;;4.47;1.17;;;18.30;81.10;;;;;;2075057;28;20042;-95
2022/06/12 06:25:54;;;;;;;5.72;1.20;;;18.30;80.90;;;;;;2088866;28;20036;-95
2022/06/12 06:27:15;;;;;;;7.47;1.52;;;18.40;80.90;;;;;;2086692;28;20040;-94
2022/06/12 06:28:35;;;;;;;5.07;1.42;;;18.40;80.90;;;;;;2092674;28;20483;-94
2022/06/12 06:29:55;;;;;;;4.50;1.52;;;18.50;80.80;;;;;;2082753;28;20443;-94
2022/06/12 06:31:14;;;;;;;5.95;1.50;;;18.50;80.70;;;;;;2081437;28;20045;-94
2022/06/12 06:32:34;;;;;;;4.95;1.58;;;18.60;80.70;;;;;;2078882;28;20128;-95
2022/06/12 06:33:54;;;;;;;5.25;1.42;;;18.60;80.70;;;;;;2087124;28;20049;-95
2022/06/12 06:35:14;;;;;;;7.47;1.85;;;18.60;80.70;;;;;;2091542;28;20072;-93
2022/06/12 06:36:33;;;;;;;3.90;1.27;;;18.70;80.60;;;;;;2094632;28;20096;-92
2022/06/12 06:37:53;;;;;;;6.07;1.40;;;18.70;80.60;;;;;;2086010;28;20715;-95
2022/06/12 06:39:12;;;;;;;6.20;1.63;;;18.70;80.50;;;;;;2087327;28;20028;-94
2022/06/12 06:40:32;;;;;;;5.60;1.90;;;18.70;80.50;;;;;;2074765;28;20045;-95
2022/06/12 06:41:52;;;;;;;5.63;1.50;;;18.80;80.60;;;;;;2082107;28;20040;-95
2022/06/12 06:43:11;;;;;;;7.13;1.60;;;18.70;80.40;;;;;;2086427;28;20033;-92
2022/06/12 06:46:15;;;;;;;5.07;1.70;;;18.80;80.50;;;;;;2086857;28;20049;-92
2022/06/12 06:47:35;;;;;;;5.57;1.52;;;18.90;80.30;;;;;;2086607;28;20104;-92
2022/06/12 06:48:54;;;;;;;6.20;1.58;;;18.90;80.20;;;;;;2079928;28;20045;-92
2022/06/12 06:50:16;;;;;;;6.05;1.52;;;19.00;80.10;;;;;;2076545;28;20038;-92
2022/06/12 06:51:36;;;;;;;6.43;1.80;;;19.00;80.00;;;;;;2085704;28;20041;-95
2022/06/12 06:52:55;;;;;;;7.03;1.80;;;19.00;79.90;;;;;;2085310;28;20494;-94
2022/06/12 06:54:14;;;;;;;6.85;1.90;;;19.00;79.80;;;;;;2085259;28;20076;-93
2022/06/12 06:55:34;;;;;;;8.88;1.63;;;19.00;79.90;;;;;;2074338;28;20042;-93
2022/06/12 06:56:53;;;;;;;5.28;1.50;;;19.00;79.90;;;;;;2088987;28;20044;-94
2022/06/12 06:58:17;;;;;;;5.93;1.90;;;19.10;80.00;;;;;;2090034;28;20128;-94
2022/06/12 06:59:37;;;;;;;5.50;1.65;;;19.10;79.90;;;;;;2086581;28;20531;-92
2022/06/12 07:00:56;;;;;;;5.57;1.50;;;19.20;79.90;;;;;;2088001;28;20049;-92
2022/06/12 07:02:16;;;;;;;6.07;1.45;;;19.20;79.70;;;;;;2084029;28;20507;-94
2022/06/12 07:03:35;;;;;;;6.57;1.83;;;19.30;79.60;;;;;;2096596;28;20025;-96
2022/06/12 07:04:54;;;;;;;4.72;1.40;;;19.40;79.60;;;;;;2075274;28;20496;-95
2022/06/12 07:06:15;;;;;;;4.55;1.50;;;19.50;79.40;;;;;;2076533;28;20041;-94
2022/06/12 07:07:34;;;;;;;;;;;19.50;79.20;;;;;;2090480;28;20045;-94
2022/06/12 07:08:54;;;;;;;5.05;1.40;;;19.60;79.20;;;;;;2086209;28;19913;-95
2022/06/12 07:10:20;;;;;;;6.38;1.50;;;19.60;79.10;;;;;;2098317;28;20047;-94
2022/06/12 07:11:40;;;;;;;5.43;1.52;;;19.70;79.10;;;;;;2106726;28;20032;-94
2022/06/12 07:13:00;;;;;;;6.40;1.83;;;19.70;79.00;;;;;;2097525;28;20045;-94
2022/06/12 07:14:19;;;;;;;5.75;1.60;;;19.70;78.90;;;;;;2091256;28;20037;-95
2022/06/12 07:15:39;;;;;;;7.63;1.80;;;19.70;78.90;;;;;;2080339;28;20065;-95
2022/06/12 07:16:59;;;;;;;6.45;1.92;;;19.80;78.80;;;;;;2089646;28;20494;-95
2022/06/12 07:18:20;;;;;;;6.90;1.65;;;19.80;78.80;;;;;;2092041;28;20036;-94
2022/06/12 07:19:40;;;;;;;4.57;1.42;;;19.80;78.80;;;;;;2096659;28;21118;-94
2022/06/12 07:21:02;;;;;;;7.00;1.65;;;19.90;78.80;;;;;;2094399;28;20044;-95
2022/06/12 07:22:22;;;;;;;5.07;1.17;;;19.90;78.70;;;;;;2097007;28;20049;-95
2022/06/12 07:23:41;;;;;;;6.80;1.40;;;19.90;78.60;;;;;;2091890;28;20041;-95
2022/06/12 07:25:00;;;;;;;6.60;1.58;;;20.00;78.50;;;;;;2096068;28;20036;-95
2022/06/12 07:26:23;;;;;;;6.10;1.60;;;20.00;78.50;;;;;;2086191;28;20049;-94
2022/06/12 07:27:44;;;;;;;5.57;1.48;;;20.00;78.50;;;;;;2094984;28;20510;-95
2022/06/12 07:29:04;;;;;;;5.00;1.50;;;20.10;78.50;;;;;;2094170;28;20041;-94
2022/06/12 07:30:23;;;;;;;3.88;1.15;;;20.10;78.40;;;;;;2084996;28;20041;-96
2022/06/12 07:31:42;;;;;;;5.82;1.88;;;20.20;78.30;;;;;;2092894;28;20048;-94
2022/06/12 07:33:03;;;;;;;7.32;1.80;;;20.30;78.00;;;;;;2088910;28;20045;-94
2022/06/12 07:34:23;;;;;;;5.85;1.30;;;20.40;77.70;;;;;;2100570;28;20040;-94
2022/06/12 07:35:44;;;;;;;5.85;1.50;;;20.50;77.50;;;;;;2086006;28;20096;-95
2022/06/12 07:37:05;;;;;;;5.68;1.40;;;20.60;77.30;;;;;;2103090;28;20040;-93
2022/06/12 07:38:27;;;;;;;5.10;1.33;;;20.60;77.10;;;;;;2107616;28;20032;-94
2022/06/12 07:39:46;;;;;;;6.13;1.50;;;20.60;76.90;;;;;;2106847;28;20125;-94
2022/06/12 07:41:09;;;;;;;5.10;1.40;;;20.50;76.80;;;;;;2101489;28;20044;-94
2022/06/12 07:42:29;;;;;;;5.93;1.55;;;20.50;76.90;;;;;;2110400;28;20584;-94
2022/06/12 07:43:49;;;;;;;5.10;1.05;;;20.40;77.00;;;;;;2105305;28;20033;-94
2022/06/12 07:45:08;;;;;;;4.32;1.17;;;20.40;77.00;;;;;;2088969;28;20069;-94
2022/06/12 07:46:28;;;;;;;5.10;1.20;;;20.40;77.00;;;;;;2095936;28;20045;-94
2022/06/12 07:47:47;;;;;;;6.85;1.50;;;20.50;76.80;;;;;;2097371;28;20045;-94
2022/06/12 07:49:07;;;;;;;4.78;1.30;;;20.50;76.70;;;;;;2094291;28;20045;-94